sensor_id;sensor_type;location;lat;lon;timestamp;temperature;humidity
62589;DHT22;58504;48.770;9.148;2024-01-06T00:01:11;21.20;52.30
62589;DHT22;58504;48.770;9.148;2024-01-06T00:03:38;21.20;52.40
62589;DHT22;58504;48.770;9.148;2024-01-06T00:06:05;21.10;52.30
62589;DHT22;58504;48.770;9.148;2024-01-06T00:08:32;21.10;52.30
62589;DHT22;58504;48.770;9.148;2024-01-06T00:10:59;21.00;52.30
62589;DHT22;58504;48.770;9.148;2024-01-06T00:13:28;21.00;52.30
62589;DHT22;58504;48.770;9.148;2024-01-06T00:15:56;21.00;52.30
62589;DHT22;58504;48.770;9.148;2024-01-06T00:18:23;20.90;52.30
62589;DHT22;58504;48.770;9.148;2024-01-06T00:20:49;21.00;52.50
62589;DHT22;58504;48.770;9.148;2024-01-06T00:23:16;20.90;52.40
62589;DHT22;58504;48.770;9.148;2024-01-06T00:25:43;20.90;52.40
62589;DHT22;58504;48.770;9.148;2024-01-06T00:28:10;20.90;52.40
62589;DHT22;58504;48.770;9.148;2024-01-06T00:30:36;20.80;52.80
62589;DHT22;58504;48.770;9.148;2024-01-06T00:33:05;20.80;52.10
62589;DHT22;58504;48.770;9.148;2024-01-06T00:35:31;20.80;52.30
62589;DHT22;58504;48.770;9.148;2024-01-06T00:37:58;20.70;52.20
62589;DHT22;58504;48.770;9.148;2024-01-06T00:40:26;20.70;52.30
62589;DHT22;58504;48.770;9.148;2024-01-06T00:42:53;20.70;52.30
62589;DHT22;58504;48.770;9.148;2024-01-06T00:45:19;20.60;52.30
62589;DHT22;58504;48.770;9.148;2024-01-06T00:47:46;20.60;52.40
62589;DHT22;58504;48.770;9.148;2024-01-06T00:50:15;20.60;52.50
62589;DHT22;58504;48.770;9.148;2024-01-06T00:52:42;20.50;52.40
62589;DHT22;58504;48.770;9.148;2024-01-06T00:55:09;20.60;52.60
62589;DHT22;58504;48.770;9.148;2024-01-06T00:57:35;20.50;53.20
62589;DHT22;58504;48.770;9.148;2024-01-06T01:00:03;20.50;52.80
62589;DHT22;58504;48.770;9.148;2024-01-06T01:02:31;20.50;52.80
62589;DHT22;58504;48.770;9.148;2024-01-06T01:04:57;20.50;52.90
62589;DHT22;58504;48.770;9.148;2024-01-06T01:07:25;20.50;52.90
62589;DHT22;58504;48.770;9.148;2024-01-06T01:09:52;20.40;52.90
62589;DHT22;58504;48.770;9.148;2024-01-06T01:12:20;20.40;52.90
62589;DHT22;58504;48.770;9.148;2024-01-06T01:14:47;20.40;53.50
62589;DHT22;58504;48.770;9.148;2024-01-06T01:17:14;20.40;53.00
62589;DHT22;58504;48.770;9.148;2024-01-06T01:19:41;20.30;52.90
62589;DHT22;58504;48.770;9.148;2024-01-06T01:22:07;20.30;53.00
62589;DHT22;58504;48.770;9.148;2024-01-06T01:24:35;20.30;53.00
62589;DHT22;58504;48.770;9.148;2024-01-06T01:27:03;20.30;53.00
62589;DHT22;58504;48.770;9.148;2024-01-06T01:29:29;20.30;53.10
62589;DHT22;58504;48.770;9.148;2024-01-06T01:31:56;20.30;53.10
62589;DHT22;58504;48.770;9.148;2024-01-06T01:34:23;20.30;53.10
62589;DHT22;58504;48.770;9.148;2024-01-06T01:36:50;20.20;53.00
62589;DHT22;58504;48.770;9.148;2024-01-06T01:39:17;20.20;53.00
62589;DHT22;58504;48.770;9.148;2024-01-06T01:41:45;20.20;53.00
62589;DHT22;58504;48.770;9.148;2024-01-06T01:44:12;20.10;52.90
62589;DHT22;58504;48.770;9.148;2024-01-06T01:46:39;20.10;52.90
62589;DHT22;58504;48.770;9.148;2024-01-06T01:49:06;20.10;53.00
62589;DHT22;58504;48.770;9.148;2024-01-06T01:51:34;20.10;52.90
62589;DHT22;58504;48.770;9.148;2024-01-06T01:54:02;20.10;52.90
62589;DHT22;58504;48.770;9.148;2024-01-06T01:56:30;20.10;53.00
62589;DHT22;58504;48.770;9.148;2024-01-06T01:59:02;20.10;53.00
62589;DHT22;58504;48.770;9.148;2024-01-06T02:01:29;20.00;53.00
62589;DHT22;58504;48.770;9.148;2024-01-06T02:03:57;20.10;53.00
62589;DHT22;58504;48.770;9.148;2024-01-06T02:06:24;20.00;53.00
62589;DHT22;58504;48.770;9.148;2024-01-06T02:08:51;20.00;53.00
62589;DHT22;58504;48.770;9.148;2024-01-06T02:11:18;20.00;53.00
62589;DHT22;58504;48.770;9.148;2024-01-06T02:13:44;20.00;53.10
62589;DHT22;58504;48.770;9.148;2024-01-06T02:16:12;20.00;53.10
62589;DHT22;58504;48.770;9.148;2024-01-06T02:18:39;20.00;53.10
62589;DHT22;58504;48.770;9.148;2024-01-06T02:21:06;19.90;53.00
62589;DHT22;58504;48.770;9.148;2024-01-06T02:23:36;19.90;53.10
62589;DHT22;58504;48.770;9.148;2024-01-06T02:26:03;19.90;53.00
62589;DHT22;58504;48.770;9.148;2024-01-06T02:28:30;19.90;53.10
62589;DHT22;58504;48.770;9.148;2024-01-06T02:30:57;19.90;53.10
62589;DHT22;58504;48.770;9.148;2024-01-06T02:33:23;19.90;53.10
62589;DHT22;58504;48.770;9.148;2024-01-06T02:35:50;19.90;53.20
62589;DHT22;58504;48.770;9.148;2024-01-06T02:38:17;19.80;53.10
62589;DHT22;58504;48.770;9.148;2024-01-06T02:40:45;19.80;53.10
62589;DHT22;58504;48.770;9.148;2024-01-06T02:43:12;19.80;53.10
62589;DHT22;58504;48.770;9.148;2024-01-06T02:45:39;19.80;53.20
62589;DHT22;58504;48.770;9.148;2024-01-06T02:48:06;19.80;53.80
62589;DHT22;58504;48.770;9.148;2024-01-06T02:50:33;19.80;53.20
62589;DHT22;58504;48.770;9.148;2024-01-06T02:52:59;19.80;53.20
62589;DHT22;58504;48.770;9.148;2024-01-06T02:55:26;19.80;53.20
62589;DHT22;58504;48.770;9.148;2024-01-06T02:57:54;19.70;53.20
62589;DHT22;58504;48.770;9.148;2024-01-06T03:00:21;19.70;53.30
62589;DHT22;58504;48.770;9.148;2024-01-06T03:02:48;19.70;53.20
62589;DHT22;58504;48.770;9.148;2024-01-06T03:05:14;19.70;53.80
62589;DHT22;58504;48.770;9.148;2024-01-06T03:07:42;19.70;53.30
62589;DHT22;58504;48.770;9.148;2024-01-06T03:10:10;19.70;53.30
62589;DHT22;58504;48.770;9.148;2024-01-06T03:12:37;19.70;53.30
62589;DHT22;58504;48.770;9.148;2024-01-06T03:15:05;19.70;53.30
62589;DHT22;58504;48.770;9.148;2024-01-06T03:17:32;19.70;53.30
62589;DHT22;58504;48.770;9.148;2024-01-06T03:19:59;19.70;53.10
62589;DHT22;58504;48.770;9.148;2024-01-06T03:22:26;19.90;52.90
62589;DHT22;58504;48.770;9.148;2024-01-06T03:24:52;20.00;52.90
62589;DHT22;58504;48.770;9.148;2024-01-06T03:27:19;20.10;52.70
62589;DHT22;58504;48.770;9.148;2024-01-06T03:29:46;20.30;52.80
62589;DHT22;58504;48.770;9.148;2024-01-06T03:32:14;20.40;52.70
62589;DHT22;58504;48.770;9.148;2024-01-06T03:34:41;20.40;52.50
62589;DHT22;58504;48.770;9.148;2024-01-06T03:37:08;20.50;52.40
62589;DHT22;58504;48.770;9.148;2024-01-06T03:39:35;20.60;52.40
62589;DHT22;58504;48.770;9.148;2024-01-06T03:42:02;20.60;52.20
62589;DHT22;58504;48.770;9.148;2024-01-06T03:44:29;20.60;52.10
62589;DHT22;58504;48.770;9.148;2024-01-06T03:46:57;20.70;52.10
62589;DHT22;58504;48.770;9.148;2024-01-06T03:49:25;20.70;52.10
62589;DHT22;58504;48.770;9.148;2024-01-06T03:51:52;20.80;52.00
62589;DHT22;58504;48.770;9.148;2024-01-06T03:54:19;20.80;51.90
62589;DHT22;58504;48.770;9.148;2024-01-06T03:56:46;20.80;51.90
62589;DHT22;58504;48.770;9.148;2024-01-06T03:59:12;20.90;51.90
62589;DHT22;58504;48.770;9.148;2024-01-06T04:01:39;20.90;51.80
62589;DHT22;58504;48.770;9.148;2024-01-06T04:04:06;20.90;51.70
62589;DHT22;58504;48.770;9.148;2024-01-06T04:06:34;20.90;51.70
62589;DHT22;58504;48.770;9.148;2024-01-06T04:09:01;20.90;51.60
62589;DHT22;58504;48.770;9.148;2024-01-06T04:11:28;21.00;51.60
62589;DHT22;58504;48.770;9.148;2024-01-06T04:13:55;21.00;51.60
62589;DHT22;58504;48.770;9.148;2024-01-06T04:16:21;21.00;51.50
62589;DHT22;58504;48.770;9.148;2024-01-06T04:18:48;21.00;51.50
62589;DHT22;58504;48.770;9.148;2024-01-06T04:21:15;21.10;51.50
62589;DHT22;58504;48.770;9.148;2024-01-06T04:23:43;21.10;51.50
62589;DHT22;58504;48.770;9.148;2024-01-06T04:26:10;21.10;51.40
62589;DHT22;58504;48.770;9.148;2024-01-06T04:28:37;21.10;51.40
62589;DHT22;58504;48.770;9.148;2024-01-06T04:31:03;21.10;51.40
62589;DHT22;58504;48.770;9.148;2024-01-06T04:33:30;21.10;51.30
62589;DHT22;58504;48.770;9.148;2024-01-06T04:35:58;21.10;51.30
62589;DHT22;58504;48.770;9.148;2024-01-06T04:38:27;21.20;51.80
62589;DHT22;58504;48.770;9.148;2024-01-06T04:40:55;21.20;51.30
62589;DHT22;58504;48.770;9.148;2024-01-06T04:43:22;21.20;51.30
62589;DHT22;58504;48.770;9.148;2024-01-06T04:45:48;21.20;51.30
62589;DHT22;58504;48.770;9.148;2024-01-06T04:48:16;21.20;51.20
62589;DHT22;58504;48.770;9.148;2024-01-06T04:50:43;21.20;51.20
62589;DHT22;58504;48.770;9.148;2024-01-06T04:53:09;21.20;51.20
62589;DHT22;58504;48.770;9.148;2024-01-06T04:55:36;21.20;51.10
62589;DHT22;58504;48.770;9.148;2024-01-06T04:58:04;21.20;51.10
62589;DHT22;58504;48.770;9.148;2024-01-06T05:00:31;21.30;51.10
62589;DHT22;58504;48.770;9.148;2024-01-06T05:02:58;21.30;51.10
62589;DHT22;58504;48.770;9.148;2024-01-06T05:05:24;21.30;51.10
62589;DHT22;58504;48.770;9.148;2024-01-06T05:07:51;21.30;51.00
62589;DHT22;58504;48.770;9.148;2024-01-06T05:10:18;21.30;51.00
62589;DHT22;58504;48.770;9.148;2024-01-06T05:12:45;21.30;50.90
62589;DHT22;58504;48.770;9.148;2024-01-06T05:15:13;21.30;50.90
62589;DHT22;58504;48.770;9.148;2024-01-06T05:17:40;21.30;50.90
62589;DHT22;58504;48.770;9.148;2024-01-06T05:20:07;21.30;50.90
62589;DHT22;58504;48.770;9.148;2024-01-06T05:22:34;21.30;50.90
62589;DHT22;58504;48.770;9.148;2024-01-06T05:25:01;21.40;51.00
62589;DHT22;58504;48.770;9.148;2024-01-06T05:27:28;21.40;50.90
62589;DHT22;58504;48.770;9.148;2024-01-06T05:29:54;21.40;50.90
62589;DHT22;58504;48.770;9.148;2024-01-06T05:32:23;21.40;50.80
62589;DHT22;58504;48.770;9.148;2024-01-06T05:34:49;21.40;50.80
62589;DHT22;58504;48.770;9.148;2024-01-06T05:37:16;21.40;50.80
62589;DHT22;58504;48.770;9.148;2024-01-06T05:39:43;21.40;50.80
62589;DHT22;58504;48.770;9.148;2024-01-06T05:42:10;21.40;50.80
62589;DHT22;58504;48.770;9.148;2024-01-06T05:44:37;21.40;50.80
62589;DHT22;58504;48.770;9.148;2024-01-06T05:47:04;21.40;50.80
62589;DHT22;58504;48.770;9.148;2024-01-06T05:49:32;21.40;50.80
62589;DHT22;58504;48.770;9.148;2024-01-06T05:51:59;21.40;50.80
62589;DHT22;58504;48.770;9.148;2024-01-06T05:54:26;21.40;50.70
62589;DHT22;58504;48.770;9.148;2024-01-06T05:56:53;21.40;50.70
62589;DHT22;58504;48.770;9.148;2024-01-06T05:59:19;21.40;50.70
62589;DHT22;58504;48.770;9.148;2024-01-06T06:01:46;21.40;50.70
62589;DHT22;58504;48.770;9.148;2024-01-06T06:04:13;21.40;50.70
62589;DHT22;58504;48.770;9.148;2024-01-06T06:06:41;21.40;50.60
62589;DHT22;58504;48.770;9.148;2024-01-06T06:09:08;21.50;50.70
62589;DHT22;58504;48.770;9.148;2024-01-06T06:11:35;21.40;50.60
62589;DHT22;58504;48.770;9.148;2024-01-06T06:14:02;21.40;51.10
62589;DHT22;58504;48.770;9.148;2024-01-06T06:16:30;21.40;51.20
62589;DHT22;58504;48.770;9.148;2024-01-06T06:18:56;21.40;51.10
62589;DHT22;58504;48.770;9.148;2024-01-06T06:21:23;21.40;50.90
62589;DHT22;58504;48.770;9.148;2024-01-06T06:23:51;21.50;50.90
62589;DHT22;58504;48.770;9.148;2024-01-06T06:26:18;21.40;50.80
62589;DHT22;58504;48.770;9.148;2024-01-06T06:28:45;21.40;50.80
62589;DHT22;58504;48.770;9.148;2024-01-06T06:31:11;21.50;50.80
62589;DHT22;58504;48.770;9.148;2024-01-06T06:33:38;21.50;50.80
62589;DHT22;58504;48.770;9.148;2024-01-06T06:36:06;21.50;50.70
62589;DHT22;58504;48.770;9.148;2024-01-06T06:38:32;21.50;50.70
62589;DHT22;58504;48.770;9.148;2024-01-06T06:41:01;21.50;50.70
62589;DHT22;58504;48.770;9.148;2024-01-06T06:43:27;21.50;50.70
62589;DHT22;58504;48.770;9.148;2024-01-06T06:45:54;21.50;50.80
62589;DHT22;58504;48.770;9.148;2024-01-06T06:48:22;21.50;50.70
62589;DHT22;58504;48.770;9.148;2024-01-06T06:50:48;21.50;50.60
62589;DHT22;58504;48.770;9.148;2024-01-06T06:53:15;21.50;50.70
62589;DHT22;58504;48.770;9.148;2024-01-06T06:55:42;21.50;50.60
62589;DHT22;58504;48.770;9.148;2024-01-06T06:58:10;21.50;51.10
62589;DHT22;58504;48.770;9.148;2024-01-06T07:00:37;21.50;50.60
62589;DHT22;58504;48.770;9.148;2024-01-06T07:03:04;21.50;51.00
62589;DHT22;58504;48.770;9.148;2024-01-06T07:05:31;21.50;51.80
62589;DHT22;58504;48.770;9.148;2024-01-06T07:08:00;21.50;51.90
62589;DHT22;58504;48.770;9.148;2024-01-06T07:10:27;21.50;51.80
62589;DHT22;58504;48.770;9.148;2024-01-06T07:12:53;21.50;51.80
62589;DHT22;58504;48.770;9.148;2024-01-06T07:15:21;21.50;51.80
62589;DHT22;58504;48.770;9.148;2024-01-06T07:17:48;21.50;51.80
62589;DHT22;58504;48.770;9.148;2024-01-06T07:20:15;21.40;51.80
62589;DHT22;58504;48.770;9.148;2024-01-06T07:22:42;21.50;51.80
62589;DHT22;58504;48.770;9.148;2024-01-06T07:25:09;21.50;51.80
62589;DHT22;58504;48.770;9.148;2024-01-06T07:27:36;21.50;51.70
62589;DHT22;58504;48.770;9.148;2024-01-06T07:30:02;21.50;51.70
62589;DHT22;58504;48.770;9.148;2024-01-06T07:32:31;21.50;51.80
62589;DHT22;58504;48.770;9.148;2024-01-06T07:34:58;21.50;51.80
62589;DHT22;58504;48.770;9.148;2024-01-06T07:37:25;21.50;51.70
62589;DHT22;58504;48.770;9.148;2024-01-06T07:39:52;21.50;51.80
62589;DHT22;58504;48.770;9.148;2024-01-06T07:42:19;21.50;51.60
62589;DHT22;58504;48.770;9.148;2024-01-06T07:44:45;21.50;51.70
62589;DHT22;58504;48.770;9.148;2024-01-06T07:47:12;21.50;52.30
62589;DHT22;58504;48.770;9.148;2024-01-06T07:49:41;21.50;51.80
62589;DHT22;58504;48.770;9.148;2024-01-06T07:52:08;21.50;51.80
62589;DHT22;58504;48.770;9.148;2024-01-06T07:54:34;21.40;51.80
62589;DHT22;58504;48.770;9.148;2024-01-06T07:57:01;21.40;51.70
62589;DHT22;58504;48.770;9.148;2024-01-06T07:59:28;21.40;51.80
62589;DHT22;58504;48.770;9.148;2024-01-06T08:01:55;21.40;51.80
62589;DHT22;58504;48.770;9.148;2024-01-06T08:04:22;21.40;51.80
62589;DHT22;58504;48.770;9.148;2024-01-06T08:06:50;21.40;51.90
62589;DHT22;58504;48.770;9.148;2024-01-06T08:09:17;21.30;51.80
62589;DHT22;58504;48.770;9.148;2024-01-06T08:11:43;21.30;51.90
62589;DHT22;58504;48.770;9.148;2024-01-06T08:14:13;21.30;51.90
62589;DHT22;58504;48.770;9.148;2024-01-06T08:16:42;21.30;51.90
62589;DHT22;58504;48.770;9.148;2024-01-06T08:19:09;21.30;51.90
62589;DHT22;58504;48.770;9.148;2024-01-06T08:21:35;21.30;51.90
62589;DHT22;58504;48.770;9.148;2024-01-06T08:24:04;21.30;51.90
62589;DHT22;58504;48.770;9.148;2024-01-06T08:26:31;21.30;51.80
62589;DHT22;58504;48.770;9.148;2024-01-06T08:28:58;21.30;51.80
62589;DHT22;58504;48.770;9.148;2024-01-06T08:31:24;21.30;51.80
62589;DHT22;58504;48.770;9.148;2024-01-06T08:33:51;21.30;51.80
62589;DHT22;58504;48.770;9.148;2024-01-06T08:36:18;21.30;51.70
62589;DHT22;58504;48.770;9.148;2024-01-06T08:38:45;21.30;51.70
62589;DHT22;58504;48.770;9.148;2024-01-06T08:41:13;21.40;51.80
62589;DHT22;58504;48.770;9.148;2024-01-06T08:43:39;21.30;51.60
62589;DHT22;58504;48.770;9.148;2024-01-06T08:46:06;21.40;51.70
62589;DHT22;58504;48.770;9.148;2024-01-06T08:48:33;21.40;51.70
62589;DHT22;58504;48.770;9.148;2024-01-06T08:51:00;21.40;51.60
62589;DHT22;58504;48.770;9.148;2024-01-06T08:53:27;21.40;51.60
62589;DHT22;58504;48.770;9.148;2024-01-06T08:55:53;21.40;51.50
62589;DHT22;58504;48.770;9.148;2024-01-06T08:58:21;21.40;51.40
62589;DHT22;58504;48.770;9.148;2024-01-06T09:00:48;21.50;51.40
62589;DHT22;58504;48.770;9.148;2024-01-06T09:03:15;21.40;51.40
62589;DHT22;58504;48.770;9.148;2024-01-06T09:05:43;21.50;51.40
62589;DHT22;58504;48.770;9.148;2024-01-06T09:08:09;21.50;51.40
62589;DHT22;58504;48.770;9.148;2024-01-06T09:10:36;21.50;51.30
62589;DHT22;58504;48.770;9.148;2024-01-06T09:13:03;21.50;51.30
62589;DHT22;58504;48.770;9.148;2024-01-06T09:15:31;21.50;51.30
62589;DHT22;58504;48.770;9.148;2024-01-06T09:17:58;21.50;51.30
62589;DHT22;58504;48.770;9.148;2024-01-06T09:20:25;21.50;51.30
62589;DHT22;58504;48.770;9.148;2024-01-06T09:22:53;21.50;51.20
62589;DHT22;58504;48.770;9.148;2024-01-06T09:25:19;21.50;51.20
62589;DHT22;58504;48.770;9.148;2024-01-06T09:27:48;21.50;51.20
62589;DHT22;58504;48.770;9.148;2024-01-06T09:30:16;21.50;51.20
62589;DHT22;58504;48.770;9.148;2024-01-06T09:32:44;21.50;51.20
62589;DHT22;58504;48.770;9.148;2024-01-06T09:35:11;21.60;51.20
62589;DHT22;58504;48.770;9.148;2024-01-06T09:37:38;21.60;51.20
62589;DHT22;58504;48.770;9.148;2024-01-06T09:40:08;21.60;51.20
62589;DHT22;58504;48.770;9.148;2024-01-06T09:42:38;21.60;51.20
62589;DHT22;58504;48.770;9.148;2024-01-06T09:45:06;21.50;51.10
62589;DHT22;58504;48.770;9.148;2024-01-06T09:47:34;21.60;51.20
62589;DHT22;58504;48.770;9.148;2024-01-06T09:50:03;21.60;51.10
62589;DHT22;58504;48.770;9.148;2024-01-06T09:52:38;21.60;51.00
62589;DHT22;58504;48.770;9.148;2024-01-06T09:55:10;21.60;51.00
62589;DHT22;58504;48.770;9.148;2024-01-06T09:57:38;21.60;51.00
62589;DHT22;58504;48.770;9.148;2024-01-06T10:00:06;21.60;50.90
62589;DHT22;58504;48.770;9.148;2024-01-06T10:02:33;21.60;50.90
62589;DHT22;58504;48.770;9.148;2024-01-06T10:05:02;21.60;50.90
62589;DHT22;58504;48.770;9.148;2024-01-06T10:07:29;21.60;50.90
62589;DHT22;58504;48.770;9.148;2024-01-06T10:09:56;21.60;51.00
62589;DHT22;58504;48.770;9.148;2024-01-06T10:12:23;21.60;51.00
62589;DHT22;58504;48.770;9.148;2024-01-06T10:14:50;21.60;51.10
62589;DHT22;58504;48.770;9.148;2024-01-06T10:17:17;21.60;51.00
62589;DHT22;58504;48.770;9.148;2024-01-06T10:19:45;21.60;51.10
62589;DHT22;58504;48.770;9.148;2024-01-06T10:22:13;21.50;51.00
62589;DHT22;58504;48.770;9.148;2024-01-06T10:24:40;21.50;51.10
62589;DHT22;58504;48.770;9.148;2024-01-06T10:27:06;21.50;51.10
62589;DHT22;58504;48.770;9.148;2024-01-06T10:29:34;21.50;51.10
62589;DHT22;58504;48.770;9.148;2024-01-06T10:32:01;21.50;51.10
62589;DHT22;58504;48.770;9.148;2024-01-06T10:34:29;21.60;51.10
62589;DHT22;58504;48.770;9.148;2024-01-06T10:36:58;21.60;51.10
62589;DHT22;58504;48.770;9.148;2024-01-06T10:39:26;21.60;51.10
62589;DHT22;58504;48.770;9.148;2024-01-06T10:41:55;21.60;51.00
62589;DHT22;58504;48.770;9.148;2024-01-06T10:44:22;21.60;51.00
62589;DHT22;58504;48.770;9.148;2024-01-06T10:46:50;21.60;51.00
62589;DHT22;58504;48.770;9.148;2024-01-06T10:49:20;21.60;51.10
62589;DHT22;58504;48.770;9.148;2024-01-06T10:51:48;21.60;51.60
62589;DHT22;58504;48.770;9.148;2024-01-06T10:54:17;21.60;51.00
62589;DHT22;58504;48.770;9.148;2024-01-06T10:56:47;21.60;51.00
62589;DHT22;58504;48.770;9.148;2024-01-06T10:59:15;21.60;51.00
62589;DHT22;58504;48.770;9.148;2024-01-06T11:01:42;21.60;51.00
62589;DHT22;58504;48.770;9.148;2024-01-06T11:04:10;21.50;50.90
62589;DHT22;58504;48.770;9.148;2024-01-06T11:06:39;21.50;50.90
62589;DHT22;58504;48.770;9.148;2024-01-06T11:09:11;21.50;50.90
62589;DHT22;58504;48.770;9.148;2024-01-06T11:11:40;21.50;51.00
62589;DHT22;58504;48.770;9.148;2024-01-06T11:14:23;21.50;51.10
62589;DHT22;58504;48.770;9.148;2024-01-06T11:16:51;21.50;51.60
62589;DHT22;58504;48.770;9.148;2024-01-06T11:19:42;21.50;51.00
62589;DHT22;58504;48.770;9.148;2024-01-06T11:22:21;21.50;50.90
62589;DHT22;58504;48.770;9.148;2024-01-06T11:24:50;21.50;50.90
62589;DHT22;58504;48.770;9.148;2024-01-06T11:27:18;21.60;50.90
62589;DHT22;58504;48.770;9.148;2024-01-06T11:29:47;21.60;50.90
62589;DHT22;58504;48.770;9.148;2024-01-06T11:32:18;21.50;50.80
62589;DHT22;58504;48.770;9.148;2024-01-06T11:34:49;21.60;50.90
62589;DHT22;58504;48.770;9.148;2024-01-06T11:37:18;21.60;50.90
62589;DHT22;58504;48.770;9.148;2024-01-06T11:39:45;21.60;50.90
62589;DHT22;58504;48.770;9.148;2024-01-06T11:42:14;21.60;50.80
62589;DHT22;58504;48.770;9.148;2024-01-06T11:44:43;21.60;50.80
62589;DHT22;58504;48.770;9.148;2024-01-06T11:47:12;21.60;50.70
62589;DHT22;58504;48.770;9.148;2024-01-06T11:49:44;21.60;50.70
62589;DHT22;58504;48.770;9.148;2024-01-06T11:52:12;21.60;50.70
62589;DHT22;58504;48.770;9.148;2024-01-06T11:54:39;21.70;50.70
62589;DHT22;58504;48.770;9.148;2024-01-06T11:57:07;21.70;50.60
62589;DHT22;58504;48.770;9.148;2024-01-06T11:59:35;21.70;50.60
62589;DHT22;58504;48.770;9.148;2024-01-06T12:02:01;21.70;50.60
62589;DHT22;58504;48.770;9.148;2024-01-06T12:04:30;21.60;50.60
62589;DHT22;58504;48.770;9.148;2024-01-06T12:07:05;21.70;50.60
62589;DHT22;58504;48.770;9.148;2024-01-06T12:09:32;21.60;50.70
62589;DHT22;58504;48.770;9.148;2024-01-06T12:12:02;21.60;50.70
62589;DHT22;58504;48.770;9.148;2024-01-06T12:14:31;21.60;50.80
62589;DHT22;58504;48.770;9.148;2024-01-06T12:16:58;21.60;50.70
62589;DHT22;58504;48.770;9.148;2024-01-06T12:19:30;21.60;50.80
62589;DHT22;58504;48.770;9.148;2024-01-06T12:21:57;21.60;50.80
62589;DHT22;58504;48.770;9.148;2024-01-06T12:24:25;21.60;50.80
62589;DHT22;58504;48.770;9.148;2024-01-06T12:26:55;21.60;50.80
62589;DHT22;58504;48.770;9.148;2024-01-06T12:29:22;21.50;50.70
62589;DHT22;58504;48.770;9.148;2024-01-06T12:31:49;21.50;50.80
62589;DHT22;58504;48.770;9.148;2024-01-06T12:34:16;21.50;50.80
62589;DHT22;58504;48.770;9.148;2024-01-06T12:36:44;21.50;50.80
62589;DHT22;58504;48.770;9.148;2024-01-06T12:39:13;21.50;50.90
62589;DHT22;58504;48.770;9.148;2024-01-06T12:41:40;21.50;50.90
62589;DHT22;58504;48.770;9.148;2024-01-06T12:44:07;21.50;50.90
62589;DHT22;58504;48.770;9.148;2024-01-06T12:46:34;21.50;50.90
62589;DHT22;58504;48.770;9.148;2024-01-06T12:49:02;21.50;50.90
62589;DHT22;58504;48.770;9.148;2024-01-06T12:51:29;21.50;50.90
62589;DHT22;58504;48.770;9.148;2024-01-06T12:53:57;21.50;50.90
62589;DHT22;58504;48.770;9.148;2024-01-06T12:56:24;21.50;50.80
62589;DHT22;58504;48.770;9.148;2024-01-06T12:58:51;21.50;50.90
62589;DHT22;58504;48.770;9.148;2024-01-06T13:01:18;21.50;50.90
62589;DHT22;58504;48.770;9.148;2024-01-06T13:03:45;21.50;50.90
62589;DHT22;58504;48.770;9.148;2024-01-06T13:06:12;21.50;50.90
62589;DHT22;58504;48.770;9.148;2024-01-06T13:08:40;21.50;50.90
62589;DHT22;58504;48.770;9.148;2024-01-06T13:11:08;21.50;50.90
62589;DHT22;58504;48.770;9.148;2024-01-06T13:13:35;21.40;50.90
62589;DHT22;58504;48.770;9.148;2024-01-06T13:16:02;21.40;50.90
62589;DHT22;58504;48.770;9.148;2024-01-06T13:18:30;21.40;50.90
62589;DHT22;58504;48.770;9.148;2024-01-06T13:20:57;21.40;50.90
62589;DHT22;58504;48.770;9.148;2024-01-06T13:23:24;21.40;50.90
62589;DHT22;58504;48.770;9.148;2024-01-06T13:25:51;21.40;50.90
62589;DHT22;58504;48.770;9.148;2024-01-06T13:28:19;21.40;50.90
62589;DHT22;58504;48.770;9.148;2024-01-06T13:30:45;21.40;50.90
62589;DHT22;58504;48.770;9.148;2024-01-06T13:33:12;21.40;50.90
62589;DHT22;58504;48.770;9.148;2024-01-06T13:35:39;21.40;51.00
62589;DHT22;58504;48.770;9.148;2024-01-06T13:38:06;21.40;51.00
62589;DHT22;58504;48.770;9.148;2024-01-06T13:40:34;21.40;51.00
62589;DHT22;58504;48.770;9.148;2024-01-06T13:43:01;21.40;50.90
62589;DHT22;58504;48.770;9.148;2024-01-06T13:45:31;21.40;50.90
62589;DHT22;58504;48.770;9.148;2024-01-06T13:47:59;21.40;50.90
62589;DHT22;58504;48.770;9.148;2024-01-06T13:50:25;21.40;50.90
62589;DHT22;58504;48.770;9.148;2024-01-06T13:52:52;21.40;50.90
62589;DHT22;58504;48.770;9.148;2024-01-06T13:55:19;21.40;50.90
62589;DHT22;58504;48.770;9.148;2024-01-06T13:57:46;21.40;50.90
62589;DHT22;58504;48.770;9.148;2024-01-06T14:00:13;21.40;50.80
62589;DHT22;58504;48.770;9.148;2024-01-06T14:02:45;21.40;50.90
62589;DHT22;58504;48.770;9.148;2024-01-06T14:05:13;21.40;50.80
62589;DHT22;58504;48.770;9.148;2024-01-06T14:07:40;21.40;50.90
62589;DHT22;58504;48.770;9.148;2024-01-06T14:10:10;21.40;50.90
62589;DHT22;58504;48.770;9.148;2024-01-06T14:12:37;21.40;50.90
62589;DHT22;58504;48.770;9.148;2024-01-06T14:15:07;21.40;50.90
62589;DHT22;58504;48.770;9.148;2024-01-06T14:17:34;21.40;50.90
62589;DHT22;58504;48.770;9.148;2024-01-06T14:20:02;21.40;50.90
62589;DHT22;58504;48.770;9.148;2024-01-06T14:22:29;21.40;50.90
62589;DHT22;58504;48.770;9.148;2024-01-06T14:24:56;21.40;50.90
62589;DHT22;58504;48.770;9.148;2024-01-06T14:27:23;21.40;50.90
62589;DHT22;58504;48.770;9.148;2024-01-06T14:29:51;21.40;50.90
62589;DHT22;58504;48.770;9.148;2024-01-06T14:32:20;21.40;50.90
62589;DHT22;58504;48.770;9.148;2024-01-06T14:34:48;21.40;50.90
62589;DHT22;58504;48.770;9.148;2024-01-06T14:37:16;21.40;50.90
62589;DHT22;58504;48.770;9.148;2024-01-06T14:39:43;21.40;50.90
62589;DHT22;58504;48.770;9.148;2024-01-06T14:42:11;21.40;50.90
62589;DHT22;58504;48.770;9.148;2024-01-06T14:44:37;21.40;50.90
62589;DHT22;58504;48.770;9.148;2024-01-06T14:47:05;21.40;50.90
62589;DHT22;58504;48.770;9.148;2024-01-06T14:49:32;21.40;50.90
62589;DHT22;58504;48.770;9.148;2024-01-06T14:52:00;21.40;50.90
62589;DHT22;58504;48.770;9.148;2024-01-06T14:54:28;21.40;50.90
62589;DHT22;58504;48.770;9.148;2024-01-06T14:56:56;21.30;50.90
62589;DHT22;58504;48.770;9.148;2024-01-06T14:59:23;21.30;50.90
62589;DHT22;58504;48.770;9.148;2024-01-06T15:01:50;21.30;50.80
62589;DHT22;58504;48.770;9.148;2024-01-06T15:04:17;21.30;50.90
62589;DHT22;58504;48.770;9.148;2024-01-06T15:06:44;21.30;50.80
62589;DHT22;58504;48.770;9.148;2024-01-06T15:09:10;21.30;50.80
62589;DHT22;58504;48.770;9.148;2024-01-06T15:11:38;21.30;50.90
62589;DHT22;58504;48.770;9.148;2024-01-06T15:14:05;21.30;50.90
62589;DHT22;58504;48.770;9.148;2024-01-06T15:16:34;21.30;50.90
62589;DHT22;58504;48.770;9.148;2024-01-06T15:19:01;21.30;50.90
62589;DHT22;58504;48.770;9.148;2024-01-06T15:21:28;21.30;50.90
62589;DHT22;58504;48.770;9.148;2024-01-06T15:23:58;21.30;50.90
62589;DHT22;58504;48.770;9.148;2024-01-06T15:26:26;21.30;50.90
62589;DHT22;58504;48.770;9.148;2024-01-06T15:28:54;21.30;50.90
62589;DHT22;58504;48.770;9.148;2024-01-06T15:31:23;21.30;50.90